Terminal Aerodrome Forecast
Issued by NWS

Home | Current Version | Previous Version | Graphics & Text | Print | Product List | Glossary On
Versions: 1 2 3 4 5 6 7 8 9 10 11 12 13 14 15 16 17 18 19 20 21 22 23
040
FTUS43 KICT 201733
TAFRSL
TAF
KRSL 201733Z 2018/2118 17006KT P6SM BKN006 OVC015
     FM202000 18007KT P6SM OVC015
     FM210000 23006KT P6SM OVC015
     FM210300 23007KT P6SM BKN008
     FM210500 24008KT P6SM BKN070
     FM210800 24009KT P6SM SCT150
     FM211100 25008KT 5SM BR SCT250
     FM211400 26006KT 2SM BR FEW100=

USA.gov is the U.S. government's official web portal to all federal, state and local government web resources and services.